MAPA DE AEROPUERTO

INFORMACIÓN METAR y TAF

METAR FOR EKVG
ADDS - METARS form results

(1648 UTC 23 October 2021)
Data provider http://aviationweather.gov/metar/data/
 
METAR text: EKVG 231620Z 15016KT 1500 -RA BR BKN002 OVC003 10/10 Q0991
Conditions at: EKVG (SORVAAG/VAGAR , DK) observed 1620 UTC 23 October 2021
Temperature: 10.0°C (50°F)
Dewpoint: 10.0°C (50°F) [RH = 100%]
Pressure (altimeter): 29.26 inches Hg (991.0 mb)
Winds: from the SSE (150 degrees) at 18 MPH (16 knots; 8.2 m/s)
Visibility: 0.93 miles (1.50 km)
Ceiling: 200 feet AGL
Clouds: broken clouds at 200 feet AGL
overcast cloud deck at 300 feet AGL
Weather: -RA BR  (light rain, mist)

METAR text: EKVG 231550Z 15016KT 1500 -DZRA BR BKN002 OVC003 10/10 Q0991
Conditions at: EKVG (SORVAAG/VAGAR , DK) observed 1550 UTC 23 October 2021
Temperature: 10.0°C (50°F)
Dewpoint: 10.0°C (50°F) [RH = 100%]
Pressure (altimeter): 29.26 inches Hg (991.0 mb)
Winds: from the SSE (150 degrees) at 18 MPH (16 knots; 8.2 m/s)
Visibility: 0.93 miles (1.50 km)
Ceiling: 200 feet AGL
Clouds: broken clouds at 200 feet AGL
overcast cloud deck at 300 feet AGL
Weather: -DZ -RA BR  (light drizzle, light rain, mist)

Forecast for: COR
Text: TAF COR EKVG 231423Z 2315/2321 15020G33KT 9999 -RA BKN004 OVC008
Forecast period: 1500 to 1900 UTC 23 October 2021
Forecast type: FROM: standard forecast or significant change
Winds: from the SSE (150 degrees) at 23 MPH (20 knots; 10.3 m/s)
gusting to 38 MPH (33 knots; 17.0 m/s)
Visibility: 6 or more miles (10+ km)
Ceiling: 400 feet AGL
Clouds: broken clouds at 400 feet AGL
overcast cloud deck at 800 feet AGL
Weather: -RA  (light rain)
Text: TEMPO 2315/2319 1500 DZ BR OVC003
Forecast period: 1500 to 1900 UTC 23 October 2021
Forecast type: TEMPORARY: The following changes expected for less than half the time period
Visibility: 0.93 miles (1.50 km)
Ceiling: 300 feet AGL
Clouds: overcast cloud deck at 300 feet AGL
Weather: DZ BR  (moderate drizzle, mist)
Text: BECMG 2319/2320 25020G30KT BKN010
Forecast period: 1900 to 2100 UTC 23 October 2021
Forecast type: BECOMING: Conditions expected to become as follows by 2000 UTC 23 October 2021
Winds: from the WSW (250 degrees) at 23 MPH (20 knots; 10.3 m/s)
gusting to 34 MPH (30 knots; 15.4 m/s)
Visibility: 6 or more miles (10+ km)
Ceiling: 1000 feet AGL
Clouds: broken clouds at 1000 feet AGL
Weather: -RA  (light rain)